Time;durP1;ratioP1;P1;durP2;ratioP2;P2;SDS_P1;SDS_P2;PMS_P1;PMS_P2;Temp;Humidity;BMP_temperature;BMP_pressure;BME280_temperature;BME280_humidity;BME280_pressure;Samples;Min_cycle;Max_cycle;Signal;HPM_P1;HPM_P2
2021/11/03 00:00:15;;;;;;;36.57;21.70;;;;;;;12.43;80.77;99636.28;127344;1100;102082;-77
2021/11/03 00:03:05;;;;;;;40.10;23.47;;;;;;;12.44;80.22;99636.30;126421;1101;101763;-77
2021/11/03 00:05:33;;;;;;;41.77;22.50;;;;;;;12.47;80.22;99635.48;127227;1101;101518;-77
2021/11/03 00:08:01;;;;;;;41.77;23.70;;;;;;;12.46;80.51;99625.80;127306;1101;101511;-77
2021/11/03 00:10:29;;;;;;;41.17;23.03;;;;;;;12.46;80.38;99631.06;127349;1101;101513;-76
2021/11/03 00:12:57;;;;;;;40.67;23.77;;;;;;;12.42;80.32;99635.41;127413;1101;101924;-77
2021/11/03 00:15:25;;;;;;;42.33;23.97;;;;;;;12.39;80.92;99627.47;127192;1101;101302;-76
2021/11/03 00:17:53;;;;;;;42.00;23.00;;;;;;;12.38;80.93;99630.95;127322;1101;101597;-76
2021/11/03 00:20:21;;;;;;;42.17;23.83;;;;;;;12.37;80.19;99637.06;127293;1101;101541;-77
2021/11/03 00:22:48;;;;;;;43.03;25.20;;;;;;;12.38;80.65;99644.98;127345;1101;101481;-77
2021/11/03 00:25:16;;;;;;;41.57;23.93;;;;;;;12.40;80.53;99645.00;127238;1101;103126;-77
2021/11/03 00:27:44;;;;;;;42.03;23.73;;;;;;;12.44;80.43;99648.59;127279;1101;101593;-77
2021/11/03 00:30:12;;;;;;;40.00;23.93;;;;;;;12.43;80.46;99652.94;127345;1100;101600;-77
2021/11/03 00:32:40;;;;;;;42.80;24.73;;;;;;;12.45;80.40;99652.97;127334;1101;101593;-77
2021/11/03 00:35:08;;;;;;;43.07;25.27;;;;;;;12.46;80.45;99662.64;127269;1101;101880;-77
2021/11/03 00:37:36;;;;;;;43.03;24.43;;;;;;;12.50;80.51;99654.81;127365;1100;101927;-76
2021/11/03 00:40:05;;;;;;;43.13;24.93;;;;;;;12.54;80.72;99655.73;127274;1101;101559;-77
2021/11/03 00:42:34;;;;;;;40.87;24.43;;;;;;;12.53;80.61;99665.38;127352;1101;101651;-77
2021/11/03 00:45:03;;;;;;;42.63;25.47;;;;;;;12.54;80.51;99664.53;126292;1102;101186;-77
2021/11/03 00:47:30;;;;;;;44.57;25.27;;;;;;;12.56;80.33;99672.45;127366;1101;101844;-77
2021/11/03 00:49:59;;;;;;;45.47;26.07;;;;;;;12.55;80.44;99666.28;127362;1101;101932;-77
2021/11/03 00:52:27;;;;;;;44.60;24.67;;;;;;;12.55;80.45;99661.02;127372;1101;101233;-76
2021/11/03 00:54:55;;;;;;;43.63;25.93;;;;;;;12.53;80.66;99668.02;127262;1101;101588;-76
2021/11/03 00:57:23;;;;;;;45.37;25.13;;;;;;;12.52;80.47;99667.99;127369;1101;101515;-76
2021/11/03 00:59:51;;;;;;;44.23;26.43;;;;;;;12.51;80.54;99675.02;127334;1101;101572;-76
2021/11/03 01:02:19;;;;;;;42.70;25.13;;;;;;;12.53;80.66;99670.64;127296;1101;102998;-77
2021/11/03 01:04:47;;;;;;;44.90;25.17;;;;;;;12.51;80.30;99667.12;127346;1101;101750;-77
2021/11/03 01:07:15;;;;;;;42.87;24.67;;;;;;;12.47;80.37;99665.30;127283;1101;101554;-77
2021/11/03 01:09:42;;;;;;;42.80;25.40;;;;;;;12.45;80.58;99666.13;127330;1101;101531;-77
2021/11/03 01:12:11;;;;;;;46.47;26.47;;;;;;;12.40;80.54;99664.33;127415;1101;101036;-77
2021/11/03 01:14:38;;;;;;;45.23;27.03;;;;;;;12.38;80.13;99663.39;127346;1102;102093;-76
2021/11/03 01:17:06;;;;;;;48.13;26.87;;;;;;;12.39;80.50;99667.81;127243;1101;101751;-77
2021/11/03 01:19:34;;;;;;;44.17;25.77;;;;;;;12.39;80.50;99666.94;127335;1101;101420;-77
2021/11/03 01:22:03;;;;;;;43.77;26.57;;;;;;;12.37;80.41;99666.00;127351;1101;101150;-77
2021/11/03 01:24:31;;;;;;;42.90;24.33;;;;;;;12.35;80.03;99670.38;127413;1101;101208;-77
2021/11/03 01:26:59;;;;;;;44.27;26.30;;;;;;;12.33;80.57;99677.37;127219;1101;101921;-77
2021/11/03 01:29:27;;;;;;;45.20;26.87;;;;;;;12.37;80.66;99679.16;127308;1101;101780;-77
2021/11/03 01:31:54;;;;;;;45.43;27.63;;;;;;;12.41;80.63;99680.98;127421;1101;101527;-76
2021/11/03 01:34:23;;;;;;;44.57;27.70;;;;;;;12.46;80.11;99689.83;126385;1102;101460;-77
2021/11/03 01:36:51;;;;;;;45.87;26.50;;;;;;;12.49;80.25;99676.72;127251;1101;101532;-77
2021/11/03 01:39:19;;;;;;;46.83;26.47;;;;;;;12.50;80.33;99686.39;127342;1101;101898;-77
2021/11/03 01:41:46;;;;;;;48.80;28.47;;;;;;;12.51;80.07;99680.28;127326;1101;101240;-77
2021/11/03 01:44:18;;;;;;;45.30;26.97;;;;;;;12.54;80.56;99695.20;127316;1101;101530;-77
2021/11/03 01:46:53;;;;;;;43.93;26.73;;;;;;;12.56;80.59;99696.13;127144;1101;101756;-76
2021/11/03 01:49:27;;;;;;;43.33;26.17;;;;;;;12.55;80.33;99695.23;127368;1102;101038;-78
2021/11/03 01:52:05;;;;;;;46.40;26.20;;;;;;;12.56;80.28;99696.13;127295;1101;103120;-78
2021/11/03 01:54:40;;;;;;;44.00;25.60;;;;;;;12.54;80.10;99701.38;127310;1101;101510;-76
2021/11/03 01:57:13;;;;;;;47.50;26.10;;;;;;;12.52;80.42;99696.94;127160;1101;101904;-77
2021/11/03 01:59:45;;;;;;;50.12;26.73;;;;;;;12.48;80.03;99706.55;126350;1101;101603;-77
2021/11/03 02:02:17;;;;;;;49.67;27.27;;;;;;;12.44;79.89;99709.10;127334;1101;101542;-77
2021/11/03 02:04:47;;;;;;;44.48;26.50;;;;;;;12.35;80.36;99697.55;127376;1101;101963;-77
2021/11/03 02:07:18;;;;;;;51.03;29.00;;;;;;;12.27;80.24;99690.42;127153;1102;101540;-77
2021/11/03 02:09:47;;;;;;;51.33;29.03;;;;;;;12.24;80.26;99704.40;126344;1102;101593;-76
2021/11/03 02:12:18;;;;;;;48.13;27.63;;;;;;;12.25;80.03;99705.27;127336;1100;101544;-77
2021/11/03 02:14:46;;;;;;;50.67;27.63;;;;;;;12.23;80.20;99711.41;127366;1101;101610;-76
2021/11/03 02:17:15;;;;;;;50.13;28.40;;;;;;;12.20;80.06;99713.99;127275;1101;101972;-77
2021/11/03 02:19:44;;;;;;;50.40;28.43;;;;;;;12.19;80.16;99717.47;127344;1101;101909;-77
2021/11/03 02:22:19;;;;;;;52.60;29.90;;;;;;;12.17;80.27;99720.92;127383;1101;101098;-77
2021/11/03 02:24:53;;;;;;;50.50;30.50;;;;;;;12.17;80.13;99729.72;127267;1101;101549;-76
2021/11/03 02:27:21;;;;;;;;;;;;;;;12.18;80.40;99735.86;127346;1100;101501;-77
2021/11/03 02:29:49;;;;;;;48.73;27.03;;;;;;;12.17;80.42;99734.98;127404;1101;101972;-75
2021/11/03 02:32:21;;;;;;;49.63;29.93;;;;;;;12.15;80.12;99741.94;127326;1101;101785;-77
2021/11/03 02:34:50;;;;;;;49.27;27.73;;;;;;;12.17;80.35;99741.97;127356;1101;101612;-77
2021/11/03 02:37:42;;;;;;;48.57;29.57;;;;;;;12.14;80.34;99734.02;127182;1101;101526;-77
2021/11/03 02:40:24;;;;;;;48.23;28.73;;;;;;;12.10;80.36;99733.09;127318;1101;101565;-77
2021/11/03 02:42:57;;;;;;;53.30;30.53;;;;;;;12.08;80.32;99740.08;127379;1101;101963;-76
2021/11/03 02:45:32;;;;;;;40.63;24.00;;;;;;;12.05;80.35;99750.55;127296;1101;101796;-75
2021/11/03 02:48:00;;;;;;;48.77;28.97;;;;;;;12.01;80.31;99748.70;127201;1101;101591;-76
2021/11/03 02:50:28;;;;;;;43.23;26.67;;;;;;;12.00;80.11;99746.95;127396;1101;101505;-76
2021/11/03 02:52:56;;;;;;;49.83;28.93;;;;;;;11.95;80.13;99746.88;127391;1101;101520;-77
2021/11/03 02:55:25;;;;;;;49.43;29.43;;;;;;;11.93;80.31;99752.95;127351;1101;102981;-76
2021/11/03 02:57:53;;;;;;;47.20;28.57;;;;;;;11.94;80.14;99746.84;127199;1101;101539;-76
2021/11/03 03:00:25;;;;;;;49.10;28.10;;;;;;;11.94;80.13;99752.11;127379;1101;101628;-76
2021/11/03 03:02:53;;;;;;;50.50;29.73;;;;;;;11.94;80.26;99755.61;127317;1101;101607;-76
2021/11/03 03:05:22;;;;;;;49.07;29.30;;;;;;;11.97;80.27;99767.94;127336;1100;101528;-77
2021/11/03 03:07:50;;;;;;;50.63;29.17;;;;;;;11.97;80.18;99760.92;127193;1101;101903;-77
2021/11/03 03:10:19;;;;;;;50.00;28.87;;;;;;;12.00;80.31;99762.73;127335;1101;101549;-77
2021/11/03 03:12:47;;;;;;;50.13;28.63;;;;;;;12.00;80.08;99762.73;127313;1101;101545;-77
2021/11/03 03:15:15;;;;;;;48.77;28.23;;;;;;;12.01;80.20;99778.54;127323;1101;101321;-77
2021/11/03 03:17:43;;;;;;;46.73;27.80;;;;;;;11.99;79.94;99776.73;127324;1102;101982;-77
2021/11/03 03:20:11;;;;;;;48.50;29.13;;;;;;;11.99;80.09;99776.73;127295;1101;103171;-77
2021/11/03 03:22:39;;;;;;;54.03;29.27;;;;;;;11.98;79.99;99782.83;127303;1101;101537;-76
2021/11/03 03:25:08;;;;;;;48.97;29.40;;;;;;;11.95;80.17;99788.03;127369;1101;101524;-77
2021/11/03 03:27:36;;;;;;;46.30;27.17;;;;;;;11.93;79.95;99785.38;127306;1101;101939;-77
2021/11/03 03:30:05;;;;;;;49.67;29.57;;;;;;;11.90;79.78;99787.04;127342;1101;101021;-77
2021/11/03 03:32:34;;;;;;;47.53;27.17;;;;;;;11.85;79.87;99781.70;127344;1101;103471;-76
2021/11/03 03:35:02;;;;;;;49.87;29.07;;;;;;;11.78;79.80;99796.47;127287;1101;101991;-77
2021/11/03 03:37:31;;;;;;;50.33;28.10;;;;;;;11.73;79.84;99800.73;127320;1101;101725;-76
2021/11/03 03:39:59;;;;;;;46.47;27.40;;;;;;;11.72;79.85;99806.86;127194;1101;101902;-77
2021/11/03 03:42:27;;;;;;;47.80;27.43;;;;;;;11.72;79.89;99801.61;127334;1101;101543;-77
2021/11/03 03:44:54;;;;;;;47.23;28.43;;;;;;;11.71;80.03;99799.82;127343;1102;101936;-77
2021/11/03 03:47:23;;;;;;;46.37;28.10;;;;;;;11.69;79.87;99805.05;127323;1101;101785;-77
2021/11/03 03:49:51;;;;;;;49.63;29.37;;;;;;;11.65;79.81;99805.83;127141;1101;101588;-76
2021/11/03 03:52:19;;;;;;;51.00;29.30;;;;;;;11.62;79.78;99816.28;127347;1102;101610;-77
2021/11/03 03:54:48;;;;;;;50.33;29.03;;;;;;;11.58;79.62;99813.59;127326;1101;101553;-76
2021/11/03 03:57:16;;;;;;;50.80;29.30;;;;;;;11.55;79.92;99816.16;127387;1101;101995;-76
2021/11/03 03:59:44;;;;;;;51.40;29.03;;;;;;;11.53;79.87;99813.49;127263;1101;102082;-77
2021/11/03 04:02:12;;;;;;;48.50;28.07;;;;;;;11.48;79.91;99821.28;127315;1101;101624;-76
2021/11/03 04:04:40;;;;;;;50.80;29.90;;;;;;;11.44;79.79;99824.68;127323;1101;101587;-77
2021/11/03 04:07:08;;;;;;;49.03;28.97;;;;;;;11.41;79.58;99839.50;127299;1101;101574;-77
2021/11/03 04:09:37;;;;;;;49.27;29.00;;;;;;;11.37;79.86;99842.91;127223;1101;102020;-77
2021/11/03 04:12:06;;;;;;;49.97;29.93;;;;;;;11.35;79.77;99842.88;127307;1101;101256;-77
2021/11/03 04:14:34;;;;;;;50.23;30.53;;;;;;;11.35;79.87;99841.99;126363;1102;101680;-77
2021/11/03 04:17:02;;;;;;;51.60;29.07;;;;;;;11.32;79.91;99843.67;126358;1101;101586;-76
2021/11/03 04:19:32;;;;;;;52.03;29.90;;;;;;;11.28;79.79;99840.95;127188;1102;101567;-77
2021/11/03 04:22:00;;;;;;;49.93;29.03;;;;;;;11.24;79.57;99844.38;127395;1101;101954;-76
2021/11/03 04:24:45;;;;;;;48.77;29.17;;;;;;;11.20;79.73;99843.40;127284;1100;101794;-77
2021/11/03 04:27:13;;;;;;;49.53;29.23;;;;;;;11.19;79.82;99846.91;127314;1101;101582;-77
2021/11/03 04:29:45;;;;;;;47.20;28.30;;;;;;;11.17;79.86;99845.08;126333;1102;101726;-77
2021/11/03 04:32:14;;;;;;;52.37;28.77;;;;;;;11.11;79.57;99846.72;127371;1101;101020;-77
2021/11/03 04:34:42;;;;;;;55.10;29.40;;;;;;;11.02;79.43;99846.51;126315;1101;102026;-76
2021/11/03 04:37:11;;;;;;;50.60;28.43;;;;;;;10.97;79.81;99850.77;127331;1101;101549;-77
2021/11/03 04:39:40;;;;;;;53.30;29.03;;;;;;;10.93;79.46;99852.41;127155;1100;101984;-77
2021/11/03 04:42:08;;;;;;;51.10;29.73;;;;;;;10.93;79.84;99862.91;127383;1101;101504;-77
2021/11/03 04:44:37;;;;;;;52.33;27.47;;;;;;;10.91;79.81;99864.63;127340;1101;101046;-77
2021/11/03 04:47:06;;;;;;;51.37;28.10;;;;;;;10.90;79.55;99875.09;127367;1101;101911;-77
2021/11/03 04:49:36;;;;;;;48.87;29.00;;;;;;;10.88;79.36;99879.42;127221;1101;101543;-77
2021/11/03 04:52:05;;;;;;;49.30;28.87;;;;;;;10.86;79.73;99888.97;127391;1101;101545;-77
2021/11/03 04:54:33;;;;;;;49.17;28.60;;;;;;;10.84;79.38;99888.94;127308;1101;101529;-76
2021/11/03 04:57:02;;;;;;;49.67;28.50;;;;;;;10.81;79.68;99883.61;127277;1101;101529;-77
2021/11/03 04:59:32;;;;;;;47.87;27.57;;;;;;;10.79;79.49;99878.33;126765;1102;102041;-77
2021/11/03 05:02:00;;;;;;;49.17;28.50;;;;;;;10.81;79.59;99880.11;126776;1101;107143;-76
2021/11/03 05:04:29;;;;;;;49.00;27.53;;;;;;;10.79;79.95;99882.70;126685;1101;101617;-77
2021/11/03 05:07:00;;;;;;;47.40;27.83;;;;;;;10.78;79.82;99891.41;126729;1101;101598;-77
2021/11/03 05:09:31;;;;;;;47.53;28.07;;;;;;;10.75;79.59;99896.58;126328;1104;101679;-77
2021/11/03 05:12:02;;;;;;;46.20;27.60;;;;;;;10.72;79.31;99907.91;126587;1102;119440;-77
2021/11/03 05:14:32;;;;;;;45.97;26.70;;;;;;;10.70;79.86;99906.95;126907;1101;101560;-77
2021/11/03 05:17:00;;;;;;;49.87;27.60;;;;;;;10.70;79.80;99906.95;127042;1101;101649;-77
2021/11/03 05:19:31;;;;;;;48.17;27.87;;;;;;;10.71;79.59;99919.23;126327;1102;101564;-77
2021/11/03 05:22:11;;;;;;;49.63;27.90;;;;;;;10.69;79.54;99926.20;127198;1101;101604;-76
2021/11/03 05:24:42;;;;;;;46.50;27.87;;;;;;;10.69;79.41;99935.78;127242;1100;102632;-76
2021/11/03 05:27:12;;;;;;;49.60;27.90;;;;;;;10.68;79.43;99949.77;126347;1102;101627;-76
2021/11/03 05:29:40;;;;;;;46.83;26.90;;;;;;;10.68;79.64;99953.27;127261;1101;101900;-77
2021/11/03 05:32:09;;;;;;;44.33;26.50;;;;;;;10.69;79.67;99956.77;127216;1101;101530;-76
2021/11/03 05:34:37;;;;;;;49.67;27.53;;;;;;;10.66;79.27;99970.72;127259;1101;101542;-76
2021/11/03 05:37:05;;;;;;;46.27;27.30;;;;;;;10.68;79.55;99978.64;127345;1101;103109;-77
2021/11/03 05:39:33;;;;;;;48.00;28.93;;;;;;;10.68;79.39;99978.64;127294;1101;101616;-78
2021/11/03 05:42:01;;;;;;;53.00;29.03;;;;;;;10.70;79.71;99983.05;127062;1101;101560;-77
2021/11/03 05:44:29;;;;;;;48.93;28.27;;;;;;;10.72;79.83;99984.01;127106;1100;101496;-77
2021/11/03 05:46:58;;;;;;;49.17;27.27;;;;;;;10.77;79.37;99992.87;127128;1101;101129;-77
2021/11/03 05:49:28;;;;;;;52.70;30.17;;;;;;;10.82;79.48;99989.50;127339;1101;102070;-77
2021/11/03 05:51:59;;;;;;;49.43;27.93;;;;;;;10.87;79.88;99988.75;127078;1101;101599;-76
2021/11/03 05:54:28;;;;;;;50.13;28.60;;;;;;;10.94;79.84;99998.58;127178;1101;101745;-77
2021/11/03 05:57:02;;;;;;;50.83;29.63;;;;;;;11.00;79.33;99999.58;127078;1101;101633;-77
2021/11/03 05:59:35;;;;;;;47.77;27.63;;;;;;;11.07;79.66;100006.78;126348;1102;101901;-77
2021/11/03 06:02:05;;;;;;;49.23;28.03;;;;;;;11.11;79.56;100013.86;126990;1102;102069;-77
2021/11/03 06:04:34;;;;;;;48.37;27.63;;;;;;;11.14;79.64;100014.85;127126;1101;101857;-77
2021/11/03 06:07:04;;;;;;;50.47;28.67;;;;;;;11.19;79.60;100033.35;126855;1101;101574;-76
2021/11/03 06:09:34;;;;;;;49.47;28.30;;;;;;;11.24;79.74;100025.59;127185;1101;101578;-76
2021/11/03 06:12:06;;;;;;;47.57;28.53;;;;;;;11.28;79.57;100025.70;126361;1102;101702;-77
2021/11/03 06:14:38;;;;;;;50.43;28.77;;;;;;;11.35;79.52;100024.11;126863;1101;102985;-76
2021/11/03 06:17:10;;;;;;;47.73;29.03;;;;;;;11.44;79.70;100028.72;126305;1102;101796;-77
2021/11/03 06:19:37;;;;;;;47.53;27.43;;;;;;;11.53;79.66;100038.55;126922;1101;101084;-77
2021/11/03 06:22:07;;;;;;;56.67;34.17;;;;;;;11.61;79.68;100036.98;126875;1102;101345;-76
2021/11/03 06:24:39;;;;;;;46.90;28.00;;;;;;;11.70;79.54;100050.34;126947;1101;101504;-76
2021/11/03 06:27:09;;;;;;;47.57;27.33;;;;;;;11.78;79.41;100048.81;126344;1102;102068;-77
2021/11/03 06:29:38;;;;;;;46.23;28.03;;;;;;;11.83;79.36;100049.80;126300;1104;102087;-76
2021/11/03 06:32:10;;;;;;;44.57;26.83;;;;;;;11.87;79.17;100054.28;126640;1102;101906;-77
2021/11/03 06:34:47;;;;;;;43.90;25.63;;;;;;;11.96;79.29;100060.63;126335;1102;101743;-77
2021/11/03 06:37:16;;;;;;;45.13;26.77;;;;;;;12.05;79.40;100068.73;126310;1105;101609;-78
2021/11/03 06:39:48;;;;;;;43.13;24.53;;;;;;;12.10;79.23;100074.97;126332;1102;103106;-77
2021/11/03 06:42:20;;;;;;;40.40;24.50;;;;;;;12.17;79.09;100084.79;126229;1105;101925;-77
2021/11/03 06:44:52;;;;;;;39.90;23.63;;;;;;;12.22;78.85;100083.14;126264;1105;101868;-77
2021/11/03 06:47:22;;;;;;;40.10;24.00;;;;;;;12.29;79.15;100085.91;126313;1105;101719;-75
2021/11/03 06:49:53;;;;;;;39.00;22.57;;;;;;;12.37;79.17;100086.95;126333;1105;101802;-76
2021/11/03 06:52:30;;;;;;;37.13;22.57;;;;;;;12.40;78.53;100084.39;126242;1104;103106;-76
2021/11/03 06:55:01;;;;;;;37.38;23.25;;;;;;;12.48;79.32;100095.08;126317;1102;101890;-77
2021/11/03 06:57:31;;;;;;;39.07;22.57;;;;;;;12.54;78.63;100092.58;126332;1105;102166;-78
2021/11/03 07:00:05;;;;;;;38.73;23.23;;;;;;;12.56;78.39;100094.41;126305;1105;101653;-77
2021/11/03 07:02:35;;;;;;;38.83;23.00;;;;;;;12.59;78.79;100097.10;126294;1103;101215;-76
2021/11/03 07:05:06;;;;;;;39.30;23.20;;;;;;;12.66;78.75;100103.38;126293;1104;102001;-77
2021/11/03 07:07:38;;;;;;;38.87;23.13;;;;;;;12.72;78.46;100105.25;126308;1102;101829;-77
2021/11/03 07:10:09;;;;;;;40.93;23.00;;;;;;;12.78;78.66;100108.02;126863;1101;101538;-77
2021/11/03 07:12:43;;;;;;;35.93;21.63;;;;;;;12.85;78.47;100106.38;126278;1102;101318;-77
2021/11/03 07:15:19;;;;;;;41.70;23.97;;;;;;;12.91;78.38;100103.88;126259;1102;101750;-78
2021/11/03 07:17:49;;;;;;;40.87;24.50;;;;;;;12.94;78.38;100112.72;126320;1102;102811;-77
2021/11/03 07:20:20;;;;;;;37.70;22.07;;;;;;;12.98;78.08;100111.05;126315;1102;101564;-76
2021/11/03 07:22:51;;;;;;;36.37;22.13;;;;;;;13.03;78.40;100116.41;126277;1102;102019;-76
2021/11/03 07:25:24;;;;;;;38.80;23.10;;;;;;;13.04;78.56;100120.80;126287;1105;102061;-77
2021/11/03 07:27:56;;;;;;;38.93;21.93;;;;;;;13.08;78.35;100122.65;126756;1101;101700;-78
2021/11/03 07:30:29;;;;;;;39.80;22.50;;;;;;;13.15;77.69;100118.37;127001;1101;103112;-78
2021/11/03 07:33:01;;;;;;;36.93;20.93;;;;;;;13.20;78.09;100127.24;126243;1102;101761;-77
2021/11/03 07:35:33;;;;;;;32.20;19.33;;;;;;;13.27;77.71;100123.88;126331;1102;101731;-77
2021/11/03 07:38:04;;;;;;;31.87;19.53;;;;;;;13.37;77.49;100124.95;126695;1101;101885;-76
2021/11/03 07:40:39;;;;;;;33.83;19.93;;;;;;;13.45;77.56;100128.64;126807;1101;101639;-77
2021/11/03 07:43:10;;;;;;;39.00;21.90;;;;;;;13.56;77.85;100132.35;127012;1101;102122;-78
2021/11/03 07:45:42;;;;;;;36.70;20.73;;;;;;;13.68;77.96;100136.97;126801;1101;102151;-79
2021/11/03 07:48:12;;;;;;;34.67;20.93;;;;;;;13.77;77.63;100137.09;126912;1102;101648;-78
2021/11/03 07:50:46;;;;;;;34.33;20.30;;;;;;;13.86;77.65;100144.28;126321;1102;101723;-77
2021/11/03 07:53:15;;;;;;;30.40;18.73;;;;;;;13.95;77.00;100138.28;126642;1101;101626;-77
2021/11/03 07:55:49;;;;;;;31.70;18.00;;;;;;;13.99;76.62;100143.63;126985;1101;101916;-77
2021/11/03 07:58:22;;;;;;;34.10;20.03;;;;;;;14.08;77.45;100147.27;126252;1101;101852;-77
2021/11/03 08:00:58;;;;;;;34.63;19.20;;;;;;;14.17;77.24;100148.29;126337;1102;101203;-76
2021/11/03 08:03:28;;;;;;;30.80;19.42;;;;;;;14.26;76.99;100152.83;126295;1102;101717;-77
2021/11/03 08:05:58;;;;;;;31.97;19.17;;;;;;;14.35;76.58;100159.98;126363;1102;101743;-77
2021/11/03 08:08:42;;;;;;;33.80;19.00;;;;;;;14.42;76.38;100153.06;126311;1102;102403;-78
2021/11/03 08:11:17;;;;;;;35.33;20.17;;;;;;;14.44;75.71;100160.12;126277;1101;101635;-78
2021/11/03 08:13:48;;;;;;;32.47;18.70;;;;;;;14.45;76.20;100158.39;126317;1102;101664;-79
2021/11/03 08:16:20;;;;;;;30.90;17.67;;;;;;;14.47;76.00;100159.28;126717;1101;101934;-77
2021/11/03 08:18:53;;;;;;;30.60;17.00;;;;;;;14.50;75.48;100164.61;126296;1101;101158;-77
2021/11/03 08:21:26;;;;;;;29.47;17.10;;;;;;;14.58;75.44;100173.52;126322;1102;103616;-77
2021/11/03 08:23:56;;;;;;;29.87;17.27;;;;;;;14.64;74.89;100176.28;126339;1101;101649;-77
2021/11/03 08:26:25;;;;;;;27.90;16.93;;;;;;;14.70;74.66;100175.48;126614;1101;101674;-78
2021/11/03 08:28:58;;;;;;;28.90;17.53;;;;;;;14.77;74.50;100181.73;126711;1101;101827;-78
2021/11/03 08:31:29;;;;;;;29.20;16.60;;;;;;;14.87;74.65;100186.28;126734;1101;101101;-77
2021/11/03 08:34:01;;;;;;;30.30;17.17;;;;;;;14.92;74.46;100193.37;126284;1102;102490;-77
2021/11/03 08:36:34;;;;;;;30.33;16.50;;;;;;;15.04;75.07;100199.72;126243;1101;101689;-76
2021/11/03 08:39:09;;;;;;;26.60;15.57;;;;;;;15.14;74.76;100192.78;126350;1105;101590;-77
2021/11/03 08:41:40;;;;;;;29.73;16.83;;;;;;;15.22;74.27;100199.03;126301;1105;102035;-78
2021/11/03 08:44:10;;;;;;;28.50;17.03;;;;;;;15.26;73.18;100200.86;126305;1102;101804;-78
2021/11/03 08:46:43;;;;;;;30.07;16.87;;;;;;;15.30;73.96;100205.29;126359;1104;102172;-78
2021/11/03 08:49:14;;;;;;;31.00;18.30;;;;;;;15.36;73.36;100213.30;126313;1105;101757;-76
2021/11/03 08:51:46;;;;;;;32.60;19.70;;;;;;;15.39;72.17;100221.26;126345;1105;101922;-77
2021/11/03 08:54:18;;;;;;;35.27;20.63;;;;;;;15.44;72.46;100224.87;126272;1105;101878;-77
2021/11/03 08:56:49;;;;;;;39.15;23.60;;;;;;;15.48;72.28;100227.55;126335;1105;101939;-76
2021/11/03 08:59:27;;;;;;;40.60;22.23;;;;;;;15.51;72.32;100228.45;126318;1105;102409;-77
2021/11/03 09:01:56;;;;;;;36.93;22.63;;;;;;;15.59;73.12;100232.06;126269;1105;102043;-79
2021/11/03 09:04:25;;;;;;;38.60;21.53;;;;;;;15.63;71.95;100230.36;126274;1105;102018;-77
2021/11/03 09:06:55;;;;;;;34.53;18.77;;;;;;;15.65;71.87;100236.55;126338;1104;102015;-76
2021/11/03 09:09:30;;;;;;;27.50;16.03;;;;;;;15.62;69.96;100241.80;126297;1104;101827;-76
2021/11/03 09:12:03;;;;;;;27.43;16.10;;;;;;;15.60;70.85;100241.78;126622;1101;101905;-78
2021/11/03 09:14:33;;;;;;;27.70;15.93;;;;;;;15.64;69.78;100243.60;127106;1101;101524;-77
2021/11/03 09:17:04;;;;;;;27.83;15.27;;;;;;;15.76;70.99;100232.25;126933;1100;101557;-77
2021/11/03 09:19:39;;;;;;;22.75;12.23;;;;;;;15.86;70.77;100235.89;126310;1102;101556;-78
2021/11/03 09:22:11;;;;;;;21.85;11.70;;;;;;;15.87;66.63;100250.03;126408;1102;101600;-76
2021/11/03 09:24:44;;;;;;;22.10;11.47;;;;;;;15.85;67.48;100241.17;126333;1102;102620;-76
2021/11/03 09:27:15;;;;;;;22.77;11.50;;;;;;;15.89;67.94;100237.70;126902;1101;101632;-76
2021/11/03 09:29:48;;;;;;;22.10;11.80;;;;;;;15.96;67.42;100239.54;127272;1101;101699;-76
2021/11/03 09:32:19;;;;;;;24.67;12.20;;;;;;;15.96;64.42;100250.13;126309;1102;101722;-76
2021/11/03 09:34:51;;;;;;;24.17;11.10;;;;;;;15.98;65.88;100248.38;127212;1100;101570;-76
2021/11/03 09:37:27;;;;;;;21.07;11.07;;;;;;;16.02;64.49;100238.69;126229;1102;118344;-76
2021/11/03 09:39:56;;;;;;;21.17;10.00;;;;;;;16.07;65.20;100234.34;127050;1101;101704;-76
2021/11/03 09:42:28;;;;;;;19.97;10.30;;;;;;;16.09;62.81;100236.11;127060;1101;101422;-76
2021/11/03 09:45:20;;;;;;;20.13;11.00;;;;;;;16.14;65.05;100233.51;126274;1102;101746;-76
2021/11/03 09:48:15;;;;;;;20.73;10.27;;;;;;;16.17;63.72;100221.21;126314;1102;101774;-77
2021/11/03 09:50:51;;;;;;;21.37;9.63;;;;;;;16.23;62.16;100228.30;126328;1102;103574;-77
2021/11/03 09:53:30;;;;;;;16.90;8.83;;;;;;;16.27;62.64;100232.75;126674;1101;101876;-75
2021/11/03 09:55:59;;;;;;;17.70;9.47;;;;;;;16.28;61.96;100238.92;126287;1102;101779;-76
2021/11/03 09:58:43;;;;;;;17.93;9.30;;;;;;;16.32;61.50;100246.03;126462;1101;101639;-77
2021/11/03 10:01:27;;;;;;;18.80;9.15;;;;;;;16.38;62.34;100246.08;126929;1102;101877;-78
2021/11/03 10:04:17;;;;;;;14.67;7.77;;;;;;;16.43;61.81;100235.52;126401;1101;101916;-76
2021/11/03 10:06:57;;;;;;;17.77;8.67;;;;;;;16.46;60.79;100241.72;126258;1102;101998;-78
2021/11/03 10:13:29;;;;;;;19.33;8.20;;;;;;;16.55;60.13;100243.56;126262;1105;101900;-77
2021/11/03 10:15:59;;;;;;;;;;;;;;;16.61;58.48;100240.95;126299;1105;101595;-77
2021/11/03 10:18:33;;;;;;;16.30;8.53;;;;;;;16.69;59.11;100254.26;126184;1105;118204;-79
2021/11/03 10:21:21;;;;;;;17.13;8.50;;;;;;;16.68;59.29;100247.17;126277;1105;101835;-78
2021/11/03 10:23:58;;;;;;;16.27;8.60;;;;;;;16.73;59.85;100248.08;126255;1105;101767;-78
2021/11/03 10:26:30;;;;;;;15.33;8.10;;;;;;;16.70;58.00;100238.37;126283;1105;102373;-77
2021/11/03 10:29:16;;;;;;;13.33;7.27;;;;;;;16.71;57.87;100244.55;126260;1105;101697;-77
2021/11/03 10:31:54;;;;;;;13.77;7.27;;;;;;;16.69;57.24;100246.30;126300;1105;101995;-78
2021/11/03 10:34:41;;;;;;;16.23;7.30;;;;;;;16.68;56.91;100242.75;126271;1105;101680;-78
2021/11/03 10:37:22;;;;;;;14.10;7.77;;;;;;;16.69;57.52;100243.66;126265;1105;102845;-78
2021/11/03 10:40:18;;;;;;;15.63;7.60;;;;;;;16.72;57.77;100243.68;126285;1105;101917;-79
2021/11/03 10:42:52;;;;;;;14.30;7.50;;;;;;;16.68;56.32;100242.75;126325;1105;101701;-79
2021/11/03 10:45:31;;;;;;;16.23;7.47;;;;;;;16.71;55.90;100244.55;126331;1102;101986;-79
2021/11/03 10:48:23;;;;;;;15.27;6.87;;;;;;;16.73;55.85;100245.43;126282;1102;101925;-78
2021/11/03 10:51:15;;;;;;;15.00;6.93;;;;;;;16.74;55.15;100239.27;126974;1101;101589;-79
2021/11/03 10:54:03;;;;;;;15.20;7.10;;;;;;;16.79;55.80;100239.30;127033;1101;101591;-79
2021/11/03 10:56:51;;;;;;;11.80;6.23;;;;;;;16.85;55.07;100242.86;127127;1101;101199;-78
2021/11/03 10:59:34;;;;;;;17.23;6.90;;;;;;;16.85;55.17;100234.91;126285;1102;102256;-79
2021/11/03 11:02:22;;;;;;;14.77;7.23;;;;;;;16.87;54.37;100242.90;126779;1101;101740;-78
2021/11/03 11:04:53;;;;;;;11.50;6.60;;;;;;;16.91;54.40;100251.75;126940;1102;101697;-79
2021/11/03 11:07:29;;;;;;;15.93;6.83;;;;;;;16.93;53.76;100244.71;126640;1101;101876;-77
2021/11/03 11:10:02;;;;;;;15.43;6.57;;;;;;;16.98;53.34;100253.56;126384;1101;101719;-77
2021/11/03 11:12:34;;;;;;;12.70;6.30;;;;;;;16.98;53.04;100259.73;126502;1102;103055;-78
2021/11/03 11:15:18;;;;;;;15.03;6.60;;;;;;;16.95;52.84;100267.67;126412;1101;101557;-76
2021/11/03 11:17:54;;;;;;;13.17;6.53;;;;;;;16.93;52.96;100268.56;126365;1101;101954;-78
2021/11/03 11:20:42;;;;;;;13.23;6.43;;;;;;;16.95;52.46;100270.33;126426;1102;101717;-77
2021/11/03 11:23:19;;;;;;;13.53;6.60;;;;;;;16.98;52.18;100272.12;126355;1102;102005;-77